createdAt,value
2018-09-04T00:01:29.538Z,18.40
2018-09-04T00:04:11.520Z,18.30
2018-09-04T00:06:51.963Z,18.30
2018-09-04T00:09:32.395Z,18.30
2018-09-04T00:12:15.699Z,18.30
2018-09-04T00:14:56.086Z,18.30
2018-09-04T00:17:36.596Z,18.20
2018-09-04T00:20:17.181Z,18.30
2018-09-04T00:22:57.563Z,18.30
2018-09-04T00:25:37.915Z,18.30
2018-09-04T00:28:19.580Z,18.20
2018-09-04T00:31:00.968Z,18.20
2018-09-04T00:33:44.478Z,18.20
2018-09-04T00:36:24.980Z,18.20
2018-09-04T00:39:05.853Z,18.30
2018-09-04T00:41:47.314Z,18.30
2018-09-04T00:44:27.867Z,18.20
2018-09-04T00:47:08.419Z,18.20
2018-09-04T00:49:48.880Z,18.20
2018-09-04T00:52:29.425Z,18.10
2018-09-04T00:55:09.828Z,18.10
2018-09-04T00:57:50.229Z,18.10
2018-09-04T01:00:30.726Z,18.10
2018-09-04T01:03:12.608Z,18.10
2018-09-04T01:05:53.087Z,18.10
2018-09-04T01:08:33.697Z,18.10
2018-09-04T01:11:15.319Z,18.10
2018-09-04T01:13:55.883Z,18.10
2018-09-04T01:16:37.125Z,18.10
2018-09-04T01:19:17.767Z,18.10
2018-09-04T01:21:59.226Z,18.10
2018-09-04T01:24:39.860Z,18.00
2018-09-04T01:27:20.249Z,18.00
2018-09-04T01:30:01.225Z,18.10
2018-09-04T01:32:44.621Z,18.10
2018-09-04T01:35:25.159Z,18.10
2018-09-04T01:38:05.652Z,18.10
2018-09-04T01:40:47.331Z,18.10
2018-09-04T01:43:27.903Z,18.10
2018-09-04T01:46:08.448Z,18.10
2018-09-04T01:48:51.235Z,18.00
2018-09-04T01:51:31.693Z,18.00
2018-09-04T01:54:14.559Z,18.00
2018-09-04T01:56:55.655Z,17.90
2018-09-04T01:59:36.089Z,18.00
2018-09-04T02:02:17.336Z,18.00
2018-09-04T02:04:57.872Z,18.00
2018-09-04T02:07:38.588Z,18.00
2018-09-04T02:10:19.188Z,18.00
2018-09-04T02:12:59.800Z,18.00
2018-09-04T02:15:41.291Z,18.00
2018-09-04T02:44:23.453Z,17.80
2018-09-04T02:47:03.859Z,17.80
2018-09-04T02:49:44.441Z,17.80
2018-09-04T02:52:25.296Z,17.80
2018-09-04T02:55:05.768Z,17.80
2018-09-04T02:57:46.300Z,17.80
2018-09-04T03:00:26.870Z,17.90
2018-09-04T03:03:08.014Z,17.90
2018-09-04T03:05:48.566Z,17.80
2018-09-04T03:08:29.079Z,17.80
2018-09-04T03:11:12.536Z,17.80
2018-09-04T03:13:53.131Z,17.80
2018-09-04T03:16:33.755Z,17.80
2018-09-04T03:19:14.239Z,17.80
2018-09-04T03:21:54.725Z,17.70
2018-09-04T03:24:35.238Z,17.70
2018-09-04T03:27:15.792Z,17.70
2018-09-04T03:29:56.337Z,17.70
2018-09-04T03:32:38.065Z,17.60
2018-09-04T03:35:18.692Z,17.60
2018-09-04T03:37:59.257Z,17.60
2018-09-04T03:40:42.356Z,17.60
2018-09-04T03:43:22.985Z,17.60
2018-09-04T03:46:03.591Z,17.60
2018-09-04T03:48:44.156Z,17.60
2018-09-04T03:51:24.630Z,17.60
2018-09-04T03:54:05.244Z,17.70
2018-09-04T03:56:45.828Z,17.60
2018-09-04T03:59:26.321Z,17.60
2018-09-04T04:02:08.470Z,17.60
2018-09-04T04:04:48.951Z,17.60
2018-09-04T04:07:29.287Z,17.60
2018-09-04T04:10:12.432Z,17.60
2018-09-04T04:12:53.041Z,17.60
2018-09-04T04:15:33.839Z,17.60
2018-09-04T04:18:14.248Z,17.60
2018-09-04T04:20:58.751Z,17.60
2018-09-04T04:23:42.558Z,17.60
2018-09-04T04:26:23.098Z,17.70
2018-09-04T04:29:03.629Z,17.70
2018-09-04T04:31:44.185Z,17.70
2018-09-04T04:34:24.527Z,17.70
2018-09-04T04:37:05.093Z,17.70
2018-09-04T04:39:45.466Z,17.70
2018-09-04T04:42:26.113Z,17.70
2018-09-04T04:45:06.505Z,17.70
2018-09-04T04:47:47.884Z,17.70
2018-09-04T04:50:28.476Z,17.70
2018-09-04T04:53:12.236Z,17.80
2018-09-04T04:55:52.844Z,17.80
2018-09-04T04:58:34.291Z,17.90
2018-09-04T05:01:14.765Z,17.90
2018-09-04T05:03:55.192Z,17.90
2018-09-04T05:06:35.760Z,17.90
2018-09-04T05:09:16.255Z,18.00
2018-09-04T05:11:56.840Z,18.00
2018-09-04T05:14:38.608Z,18.00
2018-09-04T05:17:19.957Z,18.10
2018-09-04T05:20:00.667Z,18.10
2018-09-04T05:22:42.374Z,18.20
2018-09-04T05:25:22.744Z,18.20
2018-09-04T05:28:03.286Z,18.30
2018-09-04T05:30:44.032Z,18.30
2018-09-04T05:33:32.852Z,18.30
2018-09-04T05:36:14.852Z,18.40
2018-09-04T05:38:56.260Z,18.40
2018-09-04T05:41:38.501Z,18.40
2018-09-04T05:44:19.395Z,18.50
2018-09-04T05:47:00.272Z,18.50
2018-09-04T05:49:42.851Z,18.50
2018-09-04T05:52:23.485Z,18.50
2018-09-04T05:55:04.248Z,18.50
2018-09-04T05:57:45.137Z,18.50
2018-09-04T06:00:34.742Z,18.50
2018-09-04T06:03:15.316Z,18.50
2018-09-04T06:05:55.879Z,18.40
2018-09-04T06:08:36.468Z,18.50
2018-09-04T06:11:17.182Z,18.50
2018-09-04T06:13:57.561Z,18.50
2018-09-04T06:16:41.308Z,18.50
2018-09-04T06:19:21.686Z,18.50
2018-09-04T06:22:02.483Z,18.60
2018-09-04T06:24:43.985Z,18.60
2018-09-04T06:27:24.418Z,18.60
2018-09-04T06:30:04.944Z,18.70
2018-09-04T06:32:45.463Z,18.80
2018-09-04T06:35:25.993Z,18.90
2018-09-04T06:38:08.426Z,18.90
2018-09-04T06:40:49.304Z,19.00
2018-09-04T06:43:29.744Z,18.90
2018-09-04T06:46:12.408Z,19.10
2018-09-04T06:48:52.987Z,19.10
2018-09-04T06:51:33.711Z,19.20
2018-09-04T06:54:14.288Z,19.30
2018-09-04T06:56:54.769Z,19.40
2018-09-04T06:59:35.408Z,19.40
2018-09-04T07:02:15.921Z,19.60
2018-09-04T07:04:57.307Z,19.70
2018-09-04T07:07:39.375Z,19.70
2018-09-04T07:10:19.935Z,19.80
2018-09-04T07:13:00.596Z,19.90
2018-09-04T07:15:42.729Z,20.20
2018-09-04T07:18:23.165Z,20.70
2018-09-04T07:21:03.531Z,21.00
2018-09-04T07:23:44.178Z,21.40
2018-09-04T07:26:24.781Z,21.70
2018-09-04T07:29:05.260Z,22.00
2018-09-04T07:31:45.763Z,22.20
2018-09-04T07:34:26.318Z,22.30
2018-09-04T07:37:08.433Z,22.40
2018-09-04T07:39:49.057Z,22.70
2018-09-04T07:42:29.642Z,22.90
2018-09-04T07:45:13.261Z,23.00
2018-09-04T07:47:53.681Z,23.20
2018-09-04T07:50:34.352Z,23.00
2018-09-04T07:53:14.664Z,22.90
2018-09-04T07:55:55.262Z,23.20
2018-09-04T07:58:35.612Z,23.30
2018-09-04T08:01:16.361Z,23.30
2018-09-04T08:03:57.463Z,23.10
2018-09-04T08:06:39.694Z,22.90
2018-09-04T08:09:20.191Z,22.60
2018-09-04T08:12:01.509Z,22.40
2018-09-04T08:14:43.656Z,22.20
2018-09-04T08:17:24.104Z,22.10
2018-09-04T08:20:04.649Z,21.90
2018-09-04T08:22:45.282Z,21.80
2018-09-04T08:25:27.263Z,21.70
2018-09-04T08:28:09.408Z,21.80
2018-09-04T08:30:49.911Z,21.90
2018-09-04T08:33:30.490Z,22.00
2018-09-04T08:36:13.033Z,21.90
2018-09-04T08:38:53.574Z,21.80
2018-09-04T08:41:34.049Z,21.70
2018-09-04T08:44:14.571Z,21.60
2018-09-04T08:46:55.017Z,21.50
2018-09-04T08:49:35.459Z,21.50
2018-09-04T08:52:16.041Z,21.40
2018-09-04T08:54:56.559Z,21.50
2018-09-04T08:57:38.619Z,21.50
2018-09-04T09:00:19.103Z,21.40
2018-09-04T09:02:59.541Z,21.40
2018-09-04T09:05:42.584Z,21.30
2018-09-04T09:08:23.113Z,21.20
2018-09-04T09:11:03.948Z,21.10
2018-09-04T09:13:44.567Z,21.10
2018-09-04T09:16:24.916Z,21.10
2018-09-04T09:19:05.856Z,21.10
2018-09-04T09:21:46.293Z,21.10
2018-09-04T09:24:26.764Z,21.10
2018-09-04T09:27:08.760Z,21.00
2018-09-04T09:29:49.757Z,21.00
2018-09-04T09:32:30.164Z,21.00
2018-09-04T09:35:12.597Z,21.00
2018-09-04T09:37:53.300Z,20.90
2018-09-04T09:40:33.860Z,20.80
2018-09-04T09:43:14.480Z,20.70
2018-09-04T09:45:54.990Z,20.50
2018-09-04T09:48:41.276Z,20.40
2018-09-04T09:51:21.724Z,20.30
2018-09-04T09:54:02.577Z,20.10
2018-09-04T09:56:44.199Z,20.00
2018-09-04T09:59:24.605Z,20.00
2018-09-04T10:02:08.888Z,19.90
2018-09-04T10:04:49.984Z,19.80
2018-09-04T10:07:30.603Z,19.70
2018-09-04T10:10:12.938Z,19.60
2018-09-04T10:12:53.309Z,19.60
2018-09-04T10:15:33.665Z,19.50
2018-09-04T10:18:14.187Z,19.50
2018-09-04T10:20:54.811Z,19.60
2018-09-04T10:23:36.369Z,19.50
2018-09-04T10:26:16.986Z,19.50
2018-09-04T10:28:57.454Z,19.50
2018-09-04T10:31:39.259Z,19.50
2018-09-04T10:34:19.656Z,19.50
2018-09-04T10:37:08.272Z,19.50
2018-09-04T10:39:53.882Z,19.50
2018-09-04T10:42:34.438Z,19.60
2018-09-04T10:45:20.140Z,19.60
2018-09-04T10:48:01.185Z,19.70
2018-09-04T10:50:43.946Z,19.60
2018-09-04T10:53:24.445Z,19.60
2018-09-04T10:56:05.040Z,19.60
2018-09-04T10:58:45.585Z,19.60
2018-09-04T11:01:26.115Z,19.70
2018-09-04T11:04:08.404Z,19.70
2018-09-04T11:06:49.728Z,19.70
2018-09-04T11:09:30.451Z,19.70
2018-09-04T11:12:12.356Z,19.80
2018-09-04T11:14:52.853Z,19.90
2018-09-04T11:17:33.271Z,20.00
2018-09-04T11:20:14.845Z,20.10
2018-09-04T11:22:55.371Z,20.10
2018-09-04T11:25:35.779Z,20.30
2018-09-04T11:28:16.216Z,20.30
2018-09-04T11:30:56.834Z,20.30
2018-09-04T11:33:38.185Z,20.30
2018-09-04T11:36:18.798Z,20.40
2018-09-04T11:38:59.436Z,20.50
2018-09-04T11:41:42.774Z,20.50
2018-09-04T11:44:23.383Z,20.60
2018-09-04T11:47:03.931Z,20.60
2018-09-04T11:49:44.582Z,20.70
2018-09-04T11:52:25.380Z,20.80
2018-09-04T11:55:06.138Z,20.80
2018-09-04T11:57:46.532Z,20.80
2018-09-04T12:00:30.947Z,20.80
2018-09-04T12:03:14.025Z,20.80
2018-09-04T12:05:54.616Z,20.80
2018-09-04T12:08:35.366Z,20.80
2018-09-04T12:11:16.101Z,20.70
2018-09-04T12:13:56.469Z,20.70
2018-09-04T12:16:38.253Z,20.70
2018-09-04T12:19:18.844Z,20.60
2018-09-04T12:21:59.275Z,20.60
2018-09-04T12:24:42.750Z,20.60
2018-09-04T12:27:23.233Z,20.50
2018-09-04T12:30:03.934Z,20.50
2018-09-04T12:32:44.449Z,20.50
2018-09-04T12:35:24.979Z,20.50
2018-09-04T12:38:08.409Z,20.50
2018-09-04T12:40:49.551Z,20.50
2018-09-04T12:46:29.517Z,20.60
2018-09-04T12:49:11.992Z,20.60
2018-09-04T12:51:52.509Z,20.60
2018-09-04T12:54:33.113Z,20.60
2018-09-04T12:57:13.818Z,20.60
2018-09-04T12:59:54.410Z,20.60
2018-09-04T13:02:34.845Z,20.60
2018-09-04T13:05:15.637Z,20.70
2018-09-04T13:07:56.122Z,20.60
2018-09-04T13:10:37.975Z,20.50
2018-09-04T13:13:18.491Z,20.40
2018-09-04T13:16:00.669Z,20.40
2018-09-04T13:18:43.144Z,20.30
2018-09-04T13:21:23.949Z,20.20
2018-09-04T13:24:04.536Z,20.20
2018-09-04T13:26:45.113Z,20.20
2018-09-04T13:29:25.624Z,20.20
2018-09-04T13:32:06.192Z,20.30
2018-09-04T13:34:46.805Z,20.40
2018-09-04T13:37:27.427Z,20.40
2018-09-04T13:40:09.371Z,20.40
2018-09-04T13:42:49.903Z,20.50
2018-09-04T13:45:30.497Z,20.60
2018-09-04T13:48:12.789Z,20.60
2018-09-04T14:07:11.525Z,20.70
2018-09-04T14:09:52.056Z,20.70
2018-09-04T14:12:32.687Z,20.70
2018-09-04T14:15:17.044Z,20.80
2018-09-04T14:17:57.614Z,20.80
2018-09-04T14:20:38.101Z,20.80
2018-09-04T14:23:18.739Z,20.90
2018-09-04T14:25:59.293Z,20.90
2018-09-04T14:28:41.577Z,20.90
2018-09-04T14:31:21.940Z,20.90
2018-09-04T14:34:02.507Z,20.90
2018-09-04T14:36:45.621Z,20.90
2018-09-04T14:39:26.162Z,20.90
2018-09-04T14:42:06.931Z,20.90
2018-09-04T14:44:55.997Z,21.00
2018-09-04T14:47:36.519Z,20.90
2018-09-04T14:50:18.082Z,21.00
2018-09-04T14:52:58.684Z,21.00
2018-09-04T14:55:39.405Z,20.90
2018-09-04T14:58:19.912Z,20.90
2018-09-04T15:01:00.549Z,20.90
2018-09-04T15:03:42.179Z,20.90
2018-09-04T15:06:23.767Z,20.90
2018-09-04T15:09:05.196Z,20.80
2018-09-04T15:11:46.971Z,20.80
2018-09-04T15:14:51.106Z,20.70
2018-09-04T15:17:31.869Z,20.70
2018-09-04T15:20:15.393Z,20.70
2018-09-04T15:22:56.112Z,20.70
2018-09-04T15:25:36.695Z,20.70
2018-09-04T15:28:17.205Z,20.70
2018-09-04T15:30:57.584Z,20.70
2018-09-04T15:33:37.991Z,20.70
2018-09-04T15:36:18.546Z,20.70
2018-09-04T15:38:59.251Z,20.70
2018-09-04T15:41:41.116Z,20.70
2018-09-04T15:44:22.235Z,20.80
2018-09-04T15:47:02.664Z,20.80
2018-09-04T15:49:47.388Z,20.80
2018-09-04T15:52:28.072Z,20.80
2018-09-04T15:55:08.673Z,20.70
2018-09-04T15:57:49.595Z,20.80
2018-09-04T16:00:30.149Z,20.80
2018-09-04T16:03:11.673Z,20.80
2018-09-04T16:05:52.173Z,20.80
2018-09-04T16:08:32.729Z,20.80
2018-09-04T16:11:15.441Z,20.70
2018-09-04T16:13:55.910Z,20.70
2018-09-04T16:16:36.556Z,20.70
2018-09-04T16:19:17.218Z,20.70
2018-09-04T16:21:57.855Z,20.60
2018-09-04T16:24:41.727Z,20.70
2018-09-04T16:27:22.144Z,20.70
2018-09-04T16:30:02.722Z,20.70
2018-09-04T16:32:45.498Z,20.70
2018-09-04T16:35:26.091Z,20.60
2018-09-04T16:38:07.056Z,20.60
2018-09-04T16:40:47.684Z,20.70
2018-09-04T16:43:28.292Z,20.60
2018-09-04T16:46:16.512Z,20.60
2018-09-04T16:48:57.116Z,20.60
2018-09-04T16:51:37.713Z,20.60
2018-09-04T16:54:18.277Z,20.60
2018-09-04T16:56:58.999Z,20.60
2018-09-04T16:59:39.576Z,20.60
2018-09-04T17:02:21.024Z,20.60
2018-09-04T17:05:01.668Z,20.60
2018-09-04T17:07:44.811Z,20.60
2018-09-04T17:10:25.359Z,20.60
2018-09-04T17:13:05.931Z,20.60
2018-09-04T17:15:47.912Z,20.50
2018-09-04T17:18:32.645Z,20.50
2018-09-04T17:21:15.915Z,20.50
2018-09-04T17:23:57.313Z,20.50
2018-09-04T17:26:37.896Z,20.50
2018-09-04T17:29:20.177Z,20.50
2018-09-04T17:32:00.849Z,20.40
2018-09-04T17:34:42.128Z,20.50
2018-09-04T17:37:23.580Z,20.50
2018-09-04T17:40:04.687Z,20.50
2018-09-04T17:42:48.242Z,20.40
2018-09-04T17:45:29.581Z,20.40
2018-09-04T17:48:10.177Z,20.40
2018-09-04T17:50:50.915Z,20.30
2018-09-04T17:53:32.037Z,19.80
2018-09-04T17:56:15.488Z,19.40
2018-09-04T17:58:56.947Z,19.20
2018-09-04T18:01:37.432Z,19.00
2018-09-04T18:04:18.626Z,18.90
2018-09-04T18:06:59.467Z,18.80
2018-09-04T18:09:40.529Z,18.80
2018-09-04T18:12:21.149Z,18.70
2018-09-04T18:15:01.785Z,18.70
2018-09-04T18:17:43.367Z,18.70
2018-09-04T18:20:24.031Z,18.70
2018-09-04T18:23:04.655Z,18.70
2018-09-04T18:25:46.437Z,18.80
2018-09-04T18:28:27.371Z,18.80
2018-09-04T18:31:17.849Z,18.80
2018-09-04T18:33:58.247Z,18.80
2018-09-04T18:36:38.868Z,18.80
2018-09-04T18:39:19.331Z,18.80
2018-09-04T18:41:59.980Z,18.80
2018-09-04T18:44:40.440Z,18.80
2018-09-04T18:47:21.512Z,18.80
2018-09-04T18:50:02.325Z,18.70
2018-09-04T18:52:43.830Z,18.70
2018-09-04T18:55:24.914Z,18.80
2018-09-04T18:58:06.088Z,18.80
2018-09-04T19:00:48.164Z,18.80
2018-09-04T19:03:28.998Z,18.90
2018-09-04T19:06:09.553Z,18.90
2018-09-04T19:08:50.231Z,18.90
2018-09-04T19:11:31.196Z,18.90
2018-09-04T19:14:12.859Z,18.80
2018-09-04T19:16:53.702Z,18.80
2018-09-04T19:20:23.091Z,18.80
2018-09-04T19:23:03.784Z,19.00
2018-09-04T19:25:46.905Z,18.90
2018-09-04T19:28:27.504Z,18.90
2018-09-04T19:31:08.076Z,18.90
2018-09-04T19:33:48.939Z,18.90
2018-09-04T19:36:29.536Z,19.00
2018-09-04T19:39:10.696Z,19.00
2018-09-04T19:41:51.155Z,19.00
2018-09-04T19:44:31.777Z,19.00
2018-09-04T19:47:13.368Z,19.00
2018-09-04T19:49:54.765Z,19.00
2018-09-04T19:52:35.304Z,19.00
2018-09-04T19:55:17.575Z,19.00
2018-09-04T19:57:58.144Z,18.90
2018-09-04T20:00:38.705Z,18.90
2018-09-04T20:03:19.338Z,19.00
2018-09-04T20:05:59.928Z,18.90
2018-09-04T20:08:40.604Z,18.90
2018-09-04T20:11:21.188Z,19.00
2018-09-04T20:14:03.844Z,18.90
2018-09-04T20:16:46.015Z,18.90
2018-09-04T20:19:26.508Z,18.90
2018-09-04T20:22:08.858Z,18.80
2018-09-04T20:24:49.908Z,18.80
2018-09-04T20:27:30.860Z,18.70
2018-09-04T20:30:11.517Z,18.70
2018-09-04T20:32:52.904Z,18.70
2018-09-04T20:35:34.753Z,18.70
2018-09-04T20:38:18.035Z,18.70
2018-09-04T20:40:58.928Z,18.70
2018-09-04T20:43:39.643Z,18.80
2018-09-04T20:46:20.201Z,18.80
2018-09-04T20:49:00.986Z,18.80
2018-09-04T20:51:41.788Z,18.80
2018-09-04T20:54:22.609Z,18.80
2018-09-04T20:57:27.766Z,18.70
2018-09-04T21:00:26.742Z,18.80
2018-09-04T21:03:24.289Z,18.80
2018-09-04T21:06:24.200Z,18.90
2018-09-04T21:09:16.925Z,18.80
2018-09-04T21:11:57.363Z,18.80
2018-09-04T21:14:38.020Z,18.80
2018-09-04T21:17:22.019Z,18.90
2018-09-04T21:20:02.797Z,19.00
2018-09-04T21:22:44.780Z,18.90
2018-09-04T21:25:25.984Z,18.90
2018-09-04T21:28:06.956Z,18.90
2018-09-04T21:30:48.966Z,18.90
2018-09-04T21:33:29.760Z,18.90
2018-09-04T21:36:10.453Z,18.90
2018-09-04T21:38:51.119Z,18.90
2018-09-04T21:41:31.797Z,18.90
2018-09-04T21:44:12.497Z,19.00
2018-09-04T21:46:53.099Z,18.90
2018-09-04T21:49:33.837Z,19.00
2018-09-04T21:52:15.721Z,19.00
2018-09-04T21:54:56.283Z,19.00
2018-09-04T21:57:36.902Z,19.00
2018-09-04T22:00:24.020Z,19.00
2018-09-04T22:03:04.732Z,19.00
2018-09-04T22:05:47.740Z,18.90
2018-09-04T22:08:28.195Z,19.00
2018-09-04T22:11:08.872Z,18.90
2018-09-04T22:13:50.402Z,18.90
2018-09-04T22:16:31.062Z,19.00
2018-09-04T22:19:11.764Z,19.00
2018-09-04T22:21:52.131Z,19.00
2018-09-04T22:24:36.249Z,19.00
2018-09-04T22:27:18.544Z,18.90
2018-09-04T22:29:59.683Z,19.00
2018-09-04T22:32:40.459Z,19.00
2018-09-04T22:35:21.068Z,19.00
2018-09-04T22:38:02.141Z,19.00
2018-09-04T22:40:42.597Z,19.00
2018-09-04T22:43:53.608Z,19.00
2018-09-04T22:46:34.015Z,19.00
2018-09-04T22:49:15.641Z,19.00
2018-09-04T22:51:59.995Z,19.00
2018-09-04T22:54:40.679Z,19.00
2018-09-04T22:57:21.303Z,19.00
2018-09-04T23:00:01.904Z,19.00
2018-09-04T23:02:42.662Z,19.00
2018-09-04T23:05:23.199Z,19.10
2018-09-04T23:08:03.777Z,19.10
2018-09-04T23:10:45.681Z,19.10
2018-09-04T23:13:26.101Z,19.00
2018-09-04T23:16:06.999Z,19.00
2018-09-04T23:18:48.894Z,18.90
2018-09-04T23:21:33.666Z,18.90
2018-09-04T23:24:14.666Z,18.90
2018-09-04T23:26:55.327Z,18.90
2018-09-04T23:29:35.945Z,18.90
2018-09-04T23:32:19.126Z,18.90
2018-09-04T23:34:59.732Z,18.90
2018-09-04T23:37:40.351Z,18.90
2018-09-04T23:40:21.040Z,18.90
2018-09-04T23:43:01.557Z,18.90
2018-09-04T23:45:42.446Z,18.90
2018-09-04T23:48:23.114Z,18.80
2018-09-04T23:51:04.216Z,18.80
2018-09-04T23:53:45.695Z,18.80
2018-09-04T23:56:26.452Z,18.80
2018-09-04T23:59:06.885Z,18.80
